createdAt,value
2022-12-08T00:02:45.816Z,97003.72
2022-12-08T00:06:13.289Z,97002.78
2022-12-08T00:16:17.420Z,96980.94
2022-12-08T00:19:25.271Z,96976.72
2022-12-08T00:22:41.729Z,96975.78
2022-12-08T00:25:50.532Z,96978.97
2022-12-08T00:29:17.214Z,96979.25
2022-12-08T00:32:29.449Z,96981.00
2022-12-08T00:35:42.799Z,96968.44
2022-12-08T00:38:49.800Z,96964.16
2022-12-08T00:42:02.954Z,96962.69
2022-12-08T00:45:19.296Z,96958.50
2022-12-08T00:48:25.930Z,96956.38
2022-12-08T00:51:34.520Z,96958.13
2022-12-08T00:54:40.699Z,96956.22
2022-12-08T00:57:46.241Z,96962.78
2022-12-08T01:00:53.183Z,96958.91
2022-12-08T01:04:08.598Z,96968.66
2022-12-08T01:10:47.026Z,96962.06
2022-12-08T01:14:33.339Z,96958.38
2022-12-08T01:24:25.909Z,96952.88
2022-12-08T01:27:37.091Z,96957.06
2022-12-08T01:30:57.977Z,96954.97
2022-12-08T01:34:15.461Z,96953.41
2022-12-08T01:37:26.897Z,96949.88
2022-12-08T01:44:16.506Z,96943.03
2022-12-08T01:51:55.603Z,96947.81
2022-12-08T01:54:23.590Z,96944.06
2022-12-08T02:00:53.267Z,96936.00
2022-12-08T02:28:13.883Z,96914.31
2022-12-08T02:31:44.461Z,96905.13
2022-12-08T02:38:17.534Z,96899.03
2022-12-08T02:41:30.255Z,96901.53
2022-12-08T02:44:52.233Z,96888.56
2022-12-08T02:47:57.887Z,96880.03
2022-12-08T02:54:37.012Z,96881.28
2022-12-08T03:01:30.966Z,96868.97
2022-12-08T03:04:46.227Z,96866.13
2022-12-08T03:07:57.811Z,96877.66
2022-12-08T03:11:14.435Z,96870.16
2022-12-08T03:14:19.969Z,96864.50
2022-12-08T03:17:29.520Z,96864.28
2022-12-08T03:20:36.903Z,96866.34
2022-12-08T03:24:12.528Z,96866.56
2022-12-08T03:27:19.711Z,96854.22
2022-12-08T03:30:53.682Z,96850.91
2022-12-08T03:34:08.499Z,96857.78
2022-12-08T03:37:16.656Z,96854.59
2022-12-08T03:40:25.518Z,96848.50
2022-12-08T03:43:40.406Z,96851.97
2022-12-08T03:50:15.273Z,96837.84
2022-12-08T03:53:26.770Z,96824.81
2022-12-08T03:56:33.706Z,96823.22
2022-12-08T04:03:16.902Z,96827.28
2022-12-08T04:10:00.171Z,96820.91
2022-12-08T04:13:19.200Z,96818.03
2022-12-08T04:20:03.636Z,96815.09
2022-12-08T04:23:12.548Z,96809.09
2022-12-08T04:26:23.902Z,96805.31
2022-12-08T04:29:31.629Z,96799.44
2022-12-08T04:32:45.856Z,96815.78
2022-12-08T04:35:54.736Z,96802.88
2022-12-08T04:39:13.384Z,96804.31
2022-12-08T04:49:34.684Z,96812.16
2022-12-08T04:52:46.911Z,96800.81
2022-12-08T04:59:16.543Z,96800.97
2022-12-08T05:02:52.232Z,96795.69
2022-12-08T05:05:57.577Z,96798.78
2022-12-08T05:09:04.903Z,96790.88
2022-12-08T05:16:20.150Z,96787.38
2022-12-08T05:19:04.593Z,96791.25
2022-12-08T05:22:22.837Z,96783.75
2022-12-08T05:25:30.368Z,96787.81
2022-12-08T05:28:43.325Z,96783.16
2022-12-08T05:31:48.379Z,96786.53
2022-12-08T05:35:03.211Z,96781.75
2022-12-08T05:38:13.716Z,96780.13
2022-12-08T05:41:21.679Z,96786.22
2022-12-08T05:47:56.084Z,96786.03
2022-12-08T05:54:48.249Z,96786.88
2022-12-08T05:57:56.497Z,96788.25
2022-12-08T06:01:18.584Z,96776.94
2022-12-08T06:04:23.586Z,96791.59
2022-12-08T06:07:37.002Z,96793.06
2022-12-08T06:10:54.696Z,96792.88
2022-12-08T06:14:06.392Z,96782.69
2022-12-08T06:20:56.001Z,96783.47
2022-12-08T06:24:00.346Z,96794.28
2022-12-08T06:27:06.831Z,96794.31
2022-12-08T06:30:29.773Z,96790.59
2022-12-08T06:40:53.217Z,96784.78
2022-12-08T06:44:14.336Z,96785.06
2022-12-08T06:47:22.125Z,96788.28
2022-12-08T06:50:29.943Z,96781.50
2022-12-08T06:53:49.037Z,96780.78
2022-12-08T07:00:20.444Z,96776.22
2022-12-08T07:10:27.853Z,96776.72
2022-12-08T07:13:59.890Z,96782.38
2022-12-08T07:20:46.318Z,96772.38
2022-12-08T07:38:15.964Z,96775.31
2022-12-08T07:45:04.700Z,96784.00
2022-12-08T07:48:54.383Z,96777.19
2022-12-08T07:52:07.095Z,96772.94
2022-12-08T07:55:11.605Z,96776.34
2022-12-08T07:58:28.389Z,96781.88
2022-12-08T08:05:45.163Z,96774.69
2022-12-08T08:08:27.135Z,96767.97
2022-12-08T08:11:31.548Z,96776.38
2022-12-08T08:14:35.807Z,96770.56
2022-12-08T08:17:45.509Z,96780.78
2022-12-08T08:20:54.268Z,96769.16
2022-12-08T08:24:01.792Z,96764.63
2022-12-08T08:27:08.248Z,96766.34
2022-12-08T08:30:20.720Z,96765.84
2022-12-08T08:35:00.830Z,96768.38
2022-12-08T08:36:53.971Z,96768.44
2022-12-08T08:39:59.257Z,96765.63
2022-12-08T08:43:07.480Z,96768.97
2022-12-08T08:46:18.915Z,96766.84
2022-12-08T08:49:32.006Z,96773.47
2022-12-08T08:52:44.487Z,96776.56
2022-12-08T08:55:53.198Z,96767.59
2022-12-08T08:59:00.282Z,96763.09
2022-12-08T09:02:08.899Z,96765.69
2022-12-08T09:05:16.439Z,96759.16
2022-12-08T09:08:24.914Z,96756.75
2022-12-08T09:12:19.663Z,96756.94
2022-12-08T09:16:38.940Z,96750.34
2022-12-08T09:18:28.050Z,96747.63
2022-12-08T09:21:33.579Z,96736.84
2022-12-08T09:24:39.353Z,96731.88
2022-12-08T09:27:47.249Z,96730.94
2022-12-08T09:30:54.153Z,96731.50
2022-12-08T09:34:01.070Z,96732.88
2022-12-08T09:37:05.187Z,96740.63
2022-12-08T09:40:59.189Z,96741.25
2022-12-08T09:43:40.307Z,96751.44
2022-12-08T09:46:45.950Z,96752.25
2022-12-08T09:49:56.716Z,96743.44
2022-12-08T09:53:02.268Z,96723.56
2022-12-08T09:56:12.374Z,96723.56
2022-12-08T09:59:19.075Z,96731.88
2022-12-08T10:02:28.896Z,96723.66
2022-12-08T10:06:20.190Z,96716.34
2022-12-08T10:08:59.295Z,96704.19
2022-12-08T10:12:06.400Z,96708.91
2022-12-08T10:15:10.655Z,96697.19
2022-12-08T10:18:15.908Z,96691.16
2022-12-08T10:21:21.138Z,96699.38
2022-12-08T10:24:25.137Z,96687.56
2022-12-08T10:27:30.521Z,96692.53
2022-12-08T10:30:34.687Z,96679.72
2022-12-08T10:33:40.273Z,96668.69
2022-12-08T10:36:45.696Z,96671.03
2022-12-08T10:39:54.151Z,96677.81
2022-12-08T10:43:10.211Z,96684.56
2022-12-08T10:47:01.552Z,96660.69
2022-12-08T10:49:41.496Z,96658.31
2022-12-08T10:52:45.803Z,96662.19
2022-12-08T10:55:51.326Z,96663.59
2022-12-08T10:58:58.696Z,96652.50
2022-12-08T11:02:10.165Z,96659.66
2022-12-08T11:05:14.208Z,96644.91
2022-12-08T11:08:22.572Z,96641.94
2022-12-08T11:11:29.500Z,96639.03
2022-12-08T11:18:02.889Z,96644.66
2022-12-08T11:21:07.038Z,96638.06
2022-12-08T11:24:13.516Z,96634.78
2022-12-08T11:27:28.242Z,96635.59
2022-12-08T11:30:32.172Z,96630.88
2022-12-08T11:33:36.617Z,96617.66
2022-12-08T11:36:40.656Z,96624.66
2022-12-08T11:39:44.728Z,96610.84
2022-12-08T11:42:49.841Z,96601.72
2022-12-08T11:45:54.037Z,96594.78
2022-12-08T11:49:01.272Z,96596.44
2022-12-08T11:52:10.868Z,96587.50
2022-12-08T11:55:14.976Z,96586.69
2022-12-08T11:58:19.951Z,96597.38
2022-12-08T12:01:33.989Z,96594.56
2022-12-08T12:04:41.679Z,96595.94
2022-12-08T12:07:46.901Z,96593.53
2022-12-08T12:10:51.126Z,96583.06
2022-12-08T12:14:03.142Z,96579.44
2022-12-08T12:20:35.595Z,96578.16
2022-12-08T12:23:46.311Z,96563.03
2022-12-08T12:26:54.909Z,96561.78
2022-12-08T12:29:58.902Z,96558.13
2022-12-08T12:33:02.911Z,96562.41
2022-12-08T12:36:06.732Z,96555.97
2022-12-08T12:39:30.190Z,96549.63
2022-12-08T12:43:32.112Z,96548.31
2022-12-08T12:53:27.349Z,96551.34
2022-12-08T13:00:45.872Z,96550.16
2022-12-08T13:04:09.577Z,96538.06
2022-12-08T13:07:25.585Z,96541.28
2022-12-08T13:10:39.571Z,96536.78
2022-12-08T13:14:37.389Z,96532.50
2022-12-08T13:17:56.764Z,96516.16
2022-12-08T13:21:08.650Z,96519.28
2022-12-08T13:28:33.477Z,96511.41
2022-12-08T13:31:16.387Z,96511.81
2022-12-08T13:39:28.016Z,96501.97
2022-12-08T13:41:35.545Z,96495.72
2022-12-08T13:45:20.170Z,96492.38
2022-12-08T13:53:49.043Z,96475.78
2022-12-08T14:02:23.457Z,96469.13
2022-12-08T14:16:26.597Z,96473.28
2022-12-08T14:23:02.640Z,96461.94
2022-12-08T14:26:12.460Z,96456.56
2022-12-08T14:29:19.047Z,96452.41
2022-12-08T14:32:28.659Z,96454.97
2022-12-08T14:35:35.607Z,96453.56
2022-12-08T14:42:12.696Z,96451.91
2022-12-08T14:49:00.548Z,96454.66
2022-12-08T14:52:31.521Z,96454.88
2022-12-08T14:56:00.690Z,96451.69
2022-12-08T15:02:41.798Z,96453.00
2022-12-08T15:06:05.763Z,96457.28
2022-12-08T15:09:14.091Z,96445.53
2022-12-08T15:12:26.409Z,96437.38
2022-12-08T15:18:52.490Z,96436.44
2022-12-08T15:22:16.105Z,96430.66
2022-12-08T15:28:39.851Z,96428.75
2022-12-08T15:31:47.385Z,96421.06
2022-12-08T15:34:53.988Z,96422.53
2022-12-08T15:37:59.935Z,96428.66
2022-12-08T15:44:25.780Z,96416.66
2022-12-08T15:47:33.857Z,96420.53
2022-12-08T15:51:11.968Z,96420.78
2022-12-08T15:54:14.477Z,96420.72
2022-12-08T16:00:52.272Z,96416.06
2022-12-08T16:04:27.877Z,96416.63
2022-12-08T16:07:22.085Z,96408.78
2022-12-08T16:10:29.880Z,96412.41
2022-12-08T16:14:16.667Z,96413.91
2022-12-08T16:17:08.760Z,96414.69
2022-12-08T16:20:12.909Z,96414.69
2022-12-08T16:23:34.588Z,96417.06
2022-12-08T16:30:21.487Z,96413.91
2022-12-08T16:47:29.572Z,96416.81
2022-12-08T16:50:47.830Z,96402.38
2022-12-08T16:54:16.005Z,96406.41
2022-12-08T16:57:20.595Z,96408.69
2022-12-08T17:00:33.914Z,96413.78
2022-12-08T17:03:41.181Z,96402.41
2022-12-08T17:06:44.993Z,96413.56
2022-12-08T17:09:48.819Z,96410.63
2022-12-08T17:13:02.076Z,96416.75
2022-12-08T17:16:07.613Z,96407.41
2022-12-08T17:19:18.797Z,96410.94
2022-12-08T17:22:32.639Z,96407.88
2022-12-08T17:25:40.268Z,96395.84
2022-12-08T17:29:02.282Z,96399.03
2022-12-08T17:32:09.877Z,96390.72
2022-12-08T17:35:18.883Z,96399.94
2022-12-08T17:38:25.164Z,96399.34
2022-12-08T17:41:29.549Z,96401.16
2022-12-08T17:44:36.244Z,96398.66
2022-12-08T17:47:41.494Z,96400.06
2022-12-08T17:50:45.476Z,96404.94
2022-12-08T17:53:48.987Z,96396.63
2022-12-08T17:56:53.204Z,96395.59
2022-12-08T17:59:59.768Z,96395.41
2022-12-08T18:03:13.201Z,96392.44
2022-12-08T18:09:58.348Z,96383.34
2022-12-08T18:12:47.322Z,96381.09
2022-12-08T18:15:51.262Z,96383.34
2022-12-08T18:18:55.461Z,96374.25
2022-12-08T18:21:59.484Z,96371.28
2022-12-08T18:25:03.151Z,96364.16
2022-12-08T18:28:07.801Z,96368.22
2022-12-08T18:31:16.764Z,96364.44
2022-12-08T18:34:32.712Z,96370.56
2022-12-08T18:37:44.274Z,96374.69
2022-12-08T18:40:54.347Z,96361.59
2022-12-08T18:44:05.922Z,96346.72
2022-12-08T18:47:15.334Z,96343.53
2022-12-08T18:50:24.688Z,96342.25
2022-12-08T18:53:29.005Z,96338.63
2022-12-08T18:56:34.131Z,96343.78
2022-12-08T18:59:38.411Z,96340.53
2022-12-08T19:02:54.181Z,96336.44
2022-12-08T19:05:58.185Z,96338.25
2022-12-08T19:12:36.675Z,96337.13
2022-12-08T19:19:22.984Z,96331.91
2022-12-08T20:07:54.427Z,96314.59
2022-12-08T20:10:59.428Z,96313.69
2022-12-08T20:14:03.441Z,96305.59
2022-12-08T20:17:07.388Z,96311.09
2022-12-08T20:20:33.757Z,96314.56
2022-12-08T20:23:47.267Z,96312.41
2022-12-08T20:26:55.019Z,96298.84
2022-12-08T20:29:59.017Z,96305.09
2022-12-08T20:33:03.489Z,96296.06
2022-12-08T20:36:07.243Z,96292.56
2022-12-08T20:39:11.637Z,96293.72
2022-12-08T20:42:15.387Z,96292.34
2022-12-08T20:45:19.565Z,96285.72
2022-12-08T20:48:23.533Z,96289.66
2022-12-08T20:51:32.016Z,96286.47
2022-12-08T20:54:36.048Z,96299.03
2022-12-08T20:57:39.831Z,96286.53
2022-12-08T21:00:44.149Z,96285.25
2022-12-08T21:03:48.742Z,96280.84
2022-12-08T21:06:52.785Z,96287.19
2022-12-08T21:09:57.014Z,96298.19
2022-12-08T21:13:00.900Z,96307.38
2022-12-08T21:16:05.129Z,96314.72
2022-12-08T21:19:09.325Z,96329.66
2022-12-08T21:22:13.366Z,96319.13
2022-12-08T21:25:17.716Z,96324.41
2022-12-08T21:28:21.527Z,96319.91
2022-12-08T21:31:25.773Z,96328.84
2022-12-08T21:34:29.933Z,96321.75
2022-12-08T21:37:33.742Z,96320.56
2022-12-08T21:40:37.777Z,96315.50
2022-12-08T21:43:42.114Z,96306.44
2022-12-08T21:46:46.414Z,96318.47
2022-12-08T21:49:50.598Z,96310.53
2022-12-08T21:52:54.394Z,96325.56
2022-12-08T21:55:58.279Z,96315.69
2022-12-08T21:59:02.811Z,96316.38
2022-12-08T22:02:07.381Z,96314.31
2022-12-08T22:05:11.225Z,96316.69
2022-12-08T22:08:15.363Z,96309.72
2022-12-08T22:11:19.965Z,96316.66
2022-12-08T22:14:24.069Z,96311.06
2022-12-08T22:17:28.005Z,96316.31
2022-12-08T22:20:32.114Z,96302.59
2022-12-08T22:23:36.483Z,96302.19
2022-12-08T22:26:40.541Z,96300.88
2022-12-08T22:29:44.861Z,96294.69
2022-12-08T22:32:48.841Z,96307.59
2022-12-08T22:35:52.824Z,96307.47
2022-12-08T22:38:58.704Z,96301.94
2022-12-08T22:42:02.592Z,96310.56
2022-12-08T22:45:06.893Z,96310.66
2022-12-08T22:48:10.960Z,96308.06
2022-12-08T22:51:14.731Z,96299.09
2022-12-08T22:54:19.110Z,96298.53
2022-12-08T22:57:23.311Z,96287.06
2022-12-08T23:00:27.580Z,96290.53
2022-12-08T23:03:32.867Z,96287.09
2022-12-08T23:06:36.456Z,96279.44
2022-12-08T23:09:41.577Z,96278.88
2022-12-08T23:12:45.877Z,96289.31
2022-12-08T23:15:50.044Z,96284.53
2022-12-08T23:18:54.180Z,96283.78
2022-12-08T23:21:58.292Z,96277.66
2022-12-08T23:25:02.475Z,96275.69
2022-12-08T23:28:06.286Z,96271.63
2022-12-08T23:31:10.462Z,96272.34
2022-12-08T23:34:14.502Z,96272.31
2022-12-08T23:37:18.593Z,96272.78
2022-12-08T23:40:22.905Z,96262.34
2022-12-08T23:43:27.175Z,96266.50
2022-12-08T23:46:33.701Z,96254.88
2022-12-08T23:49:37.947Z,96246.66
2022-12-08T23:52:41.694Z,96251.72
2022-12-08T23:55:45.702Z,96242.38
2022-12-08T23:58:49.667Z,96250.84
